Tiempo atmosférico en la estación meteorológica de Frontera, Sabinosa, Santa Cruz de Tenerife (20 m.)



Fecha
DESCASC
Temp. máxima en grados centígrados (hora)
DESCASC
Temp. mínima en grados centígrados (hora)
DESCASC
Temp. media en grados centígrados
DESCASC
Racha de viento máxima en m/sg (hora)
DESCASC
Velocidad máxima media en intervalos de 10 minutos(hora)
DESCASC
Precipitaciones diarias en mm
DESCASC
Precipitaciones de 00:00 a 06:00 en mm
DESCASC
Precipitaciones de 06:00 a 12:00 en mm
DESCASC
Precipitaciones de 12:00 a 18:00 en mm
DESCASC
Precipitaciones de 18:00 a 24:00 en mm
DESCASC
23-05-2020 22.3 (14:20) 20.1 (03:00) 21.2 12.22 (17:40) 6.67 (10:30) -- -- -- -- --
22-05-2020 22.2 (15:00) 18.7 (04:30) 20.5 11.94 (12:20) 7.22 (12:20) -- -- -- -- --
21-05-2020 23.8 (14:20) 17.8 (00:00) 20.8 10.56 (17:30) 7.22 (22:30) -- -- -- -- --
20-05-2020 23.6 (16:40) 19.4 (00:00) 21.5 9.72 (13:30) 5.83 (13:40) -- -- -- -- --
19-05-2020 24.4 (13:30) 19.6 (02:40) 22 8.33 (23:59) 5.28 (10:50) -- -- -- -- --
18-05-2020 24.1 (15:50) 17.1 (00:00) 20.6 7.78 (11:30) 5 (13:00) -- -- -- -- --
17-05-2020 21.9 (16:50) 18.9 (00:00) 20.4 8.89 (22:50) 5.56 (13:40) -- -- -- -- --
16-05-2020 23 (10:40) 18.7 (00:00) 20.9 8.89 (00:20) 5.83 (00:20) -- -- -- -- --
15-05-2020 23.7 (13:30) 18.2 (08:10) 21 9.17 (04:10) 6.67 (04:10) -- -- -- -- --
14-05-2020 23.3 (16:30) 18.4 (00:00) 20.8 8.61 (03:40) 5.83 (16:20) -- -- -- -- --
13-05-2020 24.4 (12:20) 19.5 (00:00) 21.9 7.22 (01:50) 5 (05:40) -- -- -- -- --
12-05-2020 23.6 (14:00) 19.9 (01:40) 21.8 7.5 (08:50) 5.28 (08:00) -- -- -- -- --
11-05-2020 25.3 (15:20) 18.7 (00:00) 22 8.06 (23:30) 5.28 (01:00) -- -- -- -- --
10-05-2020 24.4 (13:40) 19.2 (00:00) 21.8 9.44 (21:40) 6.11 (21:30) -- -- -- -- --
09-05-2020 24.7 (14:40) 17.6 (05:20) 21.2 7.22 (22:50) 5 (21:50) -- -- -- -- --
08-05-2020 24.5 (15:30) 17.6 (00:00) 21.1 5.83 (19:30) 3.61 (20:40) -- -- -- -- --
07-05-2020 24 (15:20) 18.9 (00:00) 21.4 5.83 (02:00) 3.06 (00:50) -- -- -- -- --
06-05-2020 24.7 (15:10) 18.3 (00:00) 21.5 6.94 (23:10) 4.44 (23:10) -- -- -- -- --
05-05-2020 24.5 (12:50) 17.5 (00:00) 21 5.56 (18:10) 3.61 (18:10) -- -- -- -- --
04-05-2020 23.9 (14:50) 19.1 (00:00) 21.5 5 (22:20) 3.33 (22:10) -- -- -- -- --
03-05-2020 27.3 (17:10) 17.4 (05:20) 22.3 13.06 (20:30) 5.83 (20:10) -- -- -- -- --
02-05-2020 23.3 (10:50) 17.8 (07:40) 20.5 8.33 (06:10) 5.28 (01:10) -- -- -- -- --
01-05-2020 24 (14:10) 17.4 (00:00) 20.7 8.06 (15:30) 5.56 (12:40) -- -- -- -- --
30-04-2020 23.1 (14:50) 17.6 (04:40) 20.4 11.11 (12:40) 6.67 (12:40) -- -- -- -- --
29-04-2020 23.3 (16:10) 17.4 (00:00) 20.3 9.44 (12:10) 6.39 (19:50) -- -- -- -- --
28-04-2020 22.8 (14:00) 16.8 (06:20) 19.8 6.94 (23:50) 4.17 (14:40) -- -- -- -- --
27-04-2020 24.9 (14:40) 17.4 (00:00) 21.1 6.67 (22:30) 4.17 (02:40) -- -- -- -- --
26-04-2020 22.5 (18:00) 16.4 (05:10) 19.4 4.44 (03:30) 2.78 (00:10) -- -- -- -- --

Gráficas

Temp. máximas Temp. mínimas Temp. medias Precipitaciones Rachas de viento máximas Velocidades máximas media en intervalos de 10 minutos

Datos horarios

Fecha y hora oficial Temperatura (ºC) Velocidad del viento (km/h) Dirección del viento Racha (km/h) Dirección de racha Precipitación (mm) Presión (hPa) Tendencia (hPa) Humedad (%)
2020-05-25 23:00:00 20.6 5 Este 21 Nordeste -- -- -- 84
2020-05-25 22:00:00 21 6 Este 13 Nordeste -- -- -- 82
2020-05-25 21:00:00 21.4 8 Este 19 Este -- -- -- 81
2020-05-25 20:00:00 21.9 12 Este 21 Este -- -- -- 79
2020-05-25 19:00:00 22.4 13 Este 23 Nordeste -- -- -- 78
2020-05-25 18:00:00 22.9 13 Este 26 Norte -- -- -- 76
2020-05-25 17:00:00 23.2 13 Nordeste 22 Nordeste -- -- -- 75
2020-05-25 16:00:00 23.8 12 Nordeste 26 Nordeste -- -- -- 73
2020-05-25 15:00:00 24.2 13 Nordeste 21 Nordeste -- -- -- 72
2020-05-25 14:00:00 23.8 13 Nordeste 23 Nordeste -- -- -- 74
2020-05-25 13:00:00 23.9 14 Nordeste 22 Nordeste -- -- -- 73
2020-05-25 12:00:00 23.6 13 Nordeste 28 Nordeste -- -- -- 73
2020-05-25 11:00:00 23.1 18 Nordeste 26 Nordeste -- -- -- 74
2020-05-25 10:00:00 23.3 9 Norte 23 Norte -- -- -- 72
2020-05-25 09:00:00 22 8 Noroeste 18 Oeste -- -- -- 78
2020-05-25 08:00:00 20.5 14 Oeste 22 Oeste -- -- -- 83
2020-05-25 07:00:00 20.3 7 Noroeste 22 Oeste -- -- -- 81
2020-05-25 06:00:00 20.2 10 Oeste 25 Oeste -- -- -- 83
2020-05-25 05:00:00 20.1 6 Oeste 23 Noroeste -- -- -- 84
2020-05-25 04:00:00 20.3 13 Oeste 22 Oeste -- -- -- 84
2020-05-25 03:00:00 20.4 12 Oeste 21 Oeste -- -- -- 84
2020-05-25 02:00:00 20.7 4 Norte 19 Nordeste -- -- -- 84
2020-05-25 01:00:00 20.9 3 Norte 18 Este -- -- -- 84
2020-05-25 00:00:00 21.1 7 Norte 17 Nordeste -- -- -- 83
2020-05-24 23:00:00 21.2 10 Nordeste 23 Este -- -- -- 84
2020-05-24 22:00:00 21.4 10 Nordeste 22 Nordeste -- -- -- 83
2020-05-24 21:00:00 21.8 9 Este 23 Nordeste -- -- -- 82
2020-05-24 20:00:00 22.3 7 Nordeste 23 Nordeste -- -- -- 80
2020-05-24 19:00:00 23.1 9 Nordeste 25 Nordeste -- -- -- 76
2020-05-24 18:00:00 24.1 13 Nordeste 23 Nordeste -- -- -- 73
2020-05-24 17:00:00 24.8 10 Nordeste 19 Nordeste -- -- -- 70
2020-05-24 16:00:00 24.9 5 Norte 20 Nordeste -- -- -- 69
2020-05-24 15:00:00 24.2 11 Nordeste 28 Nordeste -- -- -- 73
2020-05-24 14:00:00 24.2 16 Nordeste 32 Nordeste -- -- -- 72
2020-05-24 13:00:00 24 13 Nordeste 34 Nordeste -- -- -- 72
2020-05-24 12:00:00 24.4 14 Nordeste 33 Nordeste -- -- -- 68
2020-05-24 11:00:00 24.7 14 Nordeste 31 Sudoeste -- -- -- 65
2020-05-24 10:00:00 24.3 17 Sudoeste 30 Sur -- -- -- 60
2020-05-24 09:00:00 23.4 13 Sudoeste 32 Nordeste -- -- -- 62
2020-05-24 08:00:00 22.1 15 Nordeste 40 Este -- -- -- 65
2020-05-24 07:00:00 21.2 11 Oeste 37 Nordeste -- -- -- 73
2020-05-24 06:00:00 20.8 7 Noroeste 25 Oeste -- -- -- 77
2020-05-24 05:00:00 20.7 7 Oeste 25 Oeste -- -- -- 77
2020-05-24 04:00:00 20.6 11 Oeste 23 Oeste -- -- -- 80
2020-05-24 03:00:00 20.7 13 Noroeste 28 Norte -- -- -- 80
2020-05-24 02:00:00 20.7 8 Norte 26 Sudoeste -- -- -- 81
2020-05-24 01:00:00 20.6 7 Noroeste 21 Noroeste -- -- -- 81
2020-05-24 00:00:00 20.7 7 Norte 40 Nordeste -- -- -- 82
2020-05-23 23:00:00 20.7 15 Nordeste 41 Nordeste -- -- -- 82
2020-05-23 22:00:00 20.8 18 Nordeste 41 Nordeste -- -- -- 82
2020-05-23 21:00:00 21 17 Nordeste 32 Nordeste -- -- -- 80
2020-05-23 20:00:00 21.5 13 Este 36 Este -- -- -- 79
2020-05-23 19:00:00 21.8 12 Este 34 Nordeste -- -- -- 78
2020-05-23 18:00:00 22 14 Nordeste 44 Nordeste -- -- -- 75
2020-05-23 17:00:00 21.9 17 Nordeste 39 Nordeste -- -- -- 77
2020-05-23 16:00:00 22.3 15 Este 32 Nordeste -- -- -- 75
2020-05-23 15:00:00 22.2 18 Este 40 Nordeste -- -- -- 76
2020-05-23 14:00:00 21.9 16 Nordeste 36 Nordeste -- -- -- 76
2020-05-23 13:00:00 21.8 21 Nordeste 39 Nordeste -- -- -- 76
2020-05-23 12:00:00 21.4 20 Nordeste 41 Nordeste -- -- -- 78
2020-05-23 11:00:00 21.1 21 Nordeste 40 Nordeste -- -- -- 78
2020-05-23 10:00:00 20.8 19 Nordeste 34 Nordeste -- -- -- 79
2020-05-23 09:00:00 20.6 17 Nordeste 31 Nordeste -- -- -- 78
2020-05-23 08:00:00 20.5 14 Nordeste 38 Nordeste -- -- -- 79
2020-05-23 07:00:00 20.1 19 Nordeste 42 Nordeste -- -- -- 79
2020-05-23 06:00:00 20.1 12 Nordeste 31 Este -- -- -- 77
2020-05-23 05:00:00 20.2 16 Nordeste 44 Nordeste -- -- -- 78
2020-05-23 04:00:00 20.2 14 Este 28 Nordeste -- -- -- 77
2020-05-23 03:00:00 20.1 8 Este 32 Nordeste -- -- -- 74
2020-05-23 02:00:00 20.2 6 Sudeste 21 Este -- -- -- 75
2020-05-23 01:00:00 20.2 8 Sudeste 27 Este -- -- -- 74
2020-05-23 00:00:00 20.6 15 Este 32 Nordeste -- -- -- 76
2020-05-22 23:00:00 20.5 18 Este 36 Este -- -- -- 74
2020-05-22 22:00:00 20.3 14 Este 31 Este -- -- -- 75
2020-05-22 21:00:00 20.5 16 Este 31 Este -- -- -- 74
2020-05-22 20:00:00 21.2 15 Este 33 Este -- -- -- 73
2020-05-22 19:00:00 21.2 13 Este 28 Nordeste -- -- -- 73
2020-05-22 18:00:00 21.4 15 Este 34 Nordeste -- -- -- 71
2020-05-22 17:00:00 21.5 17 Nordeste 37 Nordeste -- -- -- 70
2020-05-22 16:00:00 21.9 16 Nordeste 40 Nordeste -- -- -- 69
2020-05-22 15:00:00 22.2 12 Nordeste 34 Nordeste -- -- -- 68
2020-05-22 14:00:00 21.8 16 Nordeste 41 Nordeste -- -- -- 67
2020-05-22 13:00:00 21.2 19 Nordeste 43 Nordeste -- -- -- 69
2020-05-22 12:00:00 21.4 20 Nordeste 35 Nordeste -- -- -- 70
2020-05-22 11:00:00 20.8 17 Nordeste 39 Nordeste -- -- -- 70
2020-05-22 10:00:00 20.7 15 Este 34 Este -- -- -- 69
2020-05-22 09:00:00 20 13 Este 35 Nordeste -- -- -- 67
2020-05-22 08:00:00 19 13 Sudeste 28 Sur -- -- -- 68
2020-05-22 07:00:00 19 10 Sudeste 27 Este -- -- -- 71
2020-05-22 06:00:00 19 7 Este 34 Nordeste -- -- -- 72
2020-05-22 05:00:00 19.1 15 Nordeste 34 Nordeste -- -- -- 73
2020-05-22 04:00:00 18.8 12 Sudeste 31 Nordeste -- -- -- 72
2020-05-22 03:00:00 19.3 18 Nordeste 34 Nordeste -- -- -- 74
2020-05-22 02:00:00 19.3 22 Este 38 Este -- -- -- 73
2020-05-22 01:00:00 19.3 14 Este 36 Nordeste -- -- -- 73
2020-05-22 00:00:00 19.6 22 Este 35 Nordeste -- -- -- 73
2020-05-21 23:00:00 19.9 21 Nordeste 38 Nordeste -- -- -- 74
2020-05-21 22:00:00 20 20 Este 35 Este -- -- -- 73
2020-05-21 21:00:00 20.2 18 Nordeste 32 Nordeste -- -- -- 71
2020-05-21 20:00:00 21 15 Nordeste 30 Nordeste -- -- -- 70
2020-05-21 19:00:00 21.4 18 Nordeste 36 Nordeste -- -- -- 68
2020-05-21 18:00:00 22.1 19 Nordeste 38 Nordeste -- -- -- 67
2020-05-21 17:00:00 22.4 15 Este 35 Nordeste -- -- -- 66
2020-05-21 16:00:00 23.3 17 Nordeste 28 Nordeste -- -- -- 64
2020-05-21 15:00:00 23.4 19 Nordeste 29 Nordeste -- -- -- 60
2020-05-21 14:00:00 23.4 19 Nordeste 37 Nordeste -- -- -- 61
2020-05-21 13:00:00 22.9 21 Nordeste 35 Nordeste -- -- -- 62
2020-05-21 12:00:00 22.7 22 Nordeste 31 Este -- -- -- 63
2020-05-21 11:00:00 22.5 16 Nordeste 28 Nordeste -- -- -- 64
2020-05-21 10:00:00 22.2 17 Nordeste 24 Nordeste -- -- -- 63
2020-05-21 09:00:00 21.4 10 Este 20 Este -- -- -- 66
2020-05-21 08:00:00 18.8 9 Sudeste 17 Sur -- -- -- 73
2020-05-21 07:00:00 18 10 Sur 18 Sudeste -- -- -- 74
2020-05-21 06:00:00 18.3 11 Sur 21 Sudeste -- -- -- 75
2020-05-21 05:00:00 18.7 8 Sudeste 20 Nordeste -- -- -- 76
2020-05-21 04:00:00 18.6 4 Oeste 21 Sudeste -- -- -- 74
2020-05-21 03:00:00 18.9 6 Sudoeste 17 Nordeste -- -- -- 74
2020-05-21 02:00:00 19.3 7 Sur 25 Nordeste -- -- -- 75
2020-05-21 01:00:00 19.9 10 Este 28 Este -- -- -- 77
2020-05-21 00:00:00 19.8 12 Este 27 Este -- -- -- 76
2020-05-20 23:00:00 20.1 13 Este 26 Este -- -- -- 76
2020-05-20 22:00:00 20.5 13 Este 30 Este -- -- -- 76
2020-05-20 21:00:00 21 14 Nordeste 26 Nordeste -- -- -- 75
2020-05-20 20:00:00 22.1 13 Este 25 Nordeste -- -- -- 73
2020-05-20 19:00:00 22.3 10 Este 27 Nordeste -- -- -- 71
2020-05-20 18:00:00 22.6 7 Este 21 Nordeste -- -- -- 69
2020-05-20 17:00:00 23.6 14 Nordeste 21 Nordeste -- -- -- 67
2020-05-20 16:00:00 22.8 12 Nordeste 25 Nordeste -- -- -- 70
2020-05-20 15:00:00 23 15 Nordeste 34 Nordeste -- -- -- 71
2020-05-20 14:00:00 21.7 14 Nordeste 35 Nordeste -- -- -- 75
2020-05-20 13:00:00 21.7 17 Nordeste 30 Nordeste -- -- -- 73
2020-05-20 12:00:00 21.5 13 Nordeste 30 Nordeste -- -- -- 74
2020-05-20 11:00:00 22.3 18 Nordeste 28 Nordeste -- -- -- 71
2020-05-20 10:00:00 21.1 20 Nordeste 34 Nordeste -- -- -- 74
2020-05-20 09:00:00 20.8 8 Este 15 Sudeste -- -- -- 73
2020-05-20 08:00:00 19.6 7 Sudeste 26 Nordeste -- -- -- 76
2020-05-20 07:00:00 20 19 Nordeste 30 Nordeste -- -- -- 79
2020-05-20 06:00:00 19.8 11 Este 27 Este -- -- -- 78
2020-05-20 05:00:00 20 17 Este 27 Nordeste -- -- -- 78
2020-05-20 04:00:00 20.2 18 Este 26 Este -- -- -- 77
2020-05-20 03:00:00 20.4 15 Este 28 Este -- -- -- 75
2020-05-20 02:00:00 20.4 14 Este 23 Este -- -- -- 75
2020-05-20 01:00:00 20.4 9 Este 24 Este -- -- -- 73
2020-05-20 00:00:00 20.2 16 Este 30 Este -- -- -- 73
2020-05-19 23:00:00 20.5 14 Este 26 Nordeste -- -- -- 75
2020-05-19 22:00:00 20.8 11 Este 20 Este -- -- -- 75
2020-05-19 21:00:00 21.1 10 Este 22 Este -- -- -- 74
2020-05-19 20:00:00 21.7 13 Este 26 Este -- -- -- 72
2020-05-19 19:00:00 21.5 18 Este 27 Este -- -- -- 73
2020-05-19 18:00:00 22.5 14 Nordeste 27 Nordeste -- -- -- 71
2020-05-19 17:00:00 22 14 Nordeste 21 Este -- -- -- 71
2020-05-19 16:00:00 23.2 12 Este 22 Nordeste -- -- -- 65
2020-05-19 15:00:00 23.4 14 Este 24 Este -- -- -- 63
2020-05-19 14:00:00 23.8 15 Este 22 Este -- -- -- 64
2020-05-19 13:00:00 24 13 Este 21 Nordeste -- -- -- 61
2020-05-19 12:00:00 22.2 14 Nordeste 27 Este -- -- -- 70
2020-05-19 11:00:00 22.9 18 Este 27 Nordeste -- -- -- 66
2020-05-19 10:00:00 22.3 11 Este 22 Este -- -- -- 68
2020-05-19 09:00:00 20.6 11 Este 26 Nordeste -- -- -- 73
2020-05-19 08:00:00 20.2 14 Nordeste 23 Nordeste -- -- -- 76
2020-05-19 07:00:00 20.1 13 Este 23 Este -- -- -- 74
2020-05-19 06:00:00 19.9 10 Sudeste 18 Sudeste -- -- -- 74
2020-05-19 05:00:00 20.1 9 Este 18 Este -- -- -- 75
2020-05-19 04:00:00 20.1 13 Este 21 Este -- -- -- 74
2020-05-19 03:00:00 19.7 9 Sudeste 21 Sudeste -- -- -- 71
2020-05-19 02:00:00 20 8 Este 17 Este -- -- -- 74
2020-05-19 01:00:00 20.2 11 Este 18 Este -- -- -- 74
2020-05-19 00:00:00 20.4 10 Este 22 Nordeste -- -- -- 74
2020-05-18 23:00:00 20.5 11 Este 21 Este -- -- -- 72
2020-05-18 22:00:00 20.4 12 Este 23 Nordeste -- -- -- 73
2020-05-18 21:00:00 20.6 13 Nordeste 23 Nordeste -- -- -- 72
2020-05-18 20:00:00 21.5 11 Nordeste 23 Este -- -- -- 70
2020-05-18 19:00:00 21.9 10 Este 19 Este -- -- -- 66
2020-05-18 18:00:00 22.8 11 Este 19 Nordeste -- -- -- 61
2020-05-18 17:00:00 23.6 12 Este 21 Este -- -- -- 60
2020-05-18 16:00:00 24.1 12 Este 22 Este -- -- -- 56
2020-05-18 15:00:00 23.8 14 Este 24 Este -- -- -- 57
2020-05-18 14:00:00 21.9 13 Nordeste 24 Nordeste -- -- -- 61
2020-05-18 13:00:00 21.3 18 Nordeste 27 Nordeste -- -- -- 68
2020-05-18 12:00:00 21.3 16 Nordeste 28 Nordeste -- -- -- 69
2020-05-18 11:00:00 21.7 14 Nordeste 23 Nordeste -- -- -- 67
2020-05-18 10:00:00 22.1 8 Este 16 Este -- -- -- 63
2020-05-18 09:00:00 20.3 5 Este 11 Sudeste -- -- -- 62
2020-05-18 08:00:00 18.1 4 Sudoeste 10 Sur -- -- -- 66
2020-05-18 07:00:00 17.3 3 Sur 15 Sur -- -- -- 59
2020-05-18 06:00:00 18.3 11 Sur 17 Sudeste -- -- -- 69
2020-05-18 05:00:00 18.4 12 Sudeste 17 Sudeste -- -- -- 68
2020-05-18 04:00:00 18.3 8 Sur 14 Sudeste -- -- -- 66
2020-05-18 03:00:00 19.3 11 Este 18 Nordeste -- -- -- 67
2020-05-18 02:00:00 19.2 6 Sudeste 21 Nordeste -- -- -- 66
2020-05-18 01:00:00 19.4 8 Este 27 Este -- -- -- 66
2020-05-18 00:00:00 19.7 13 Este 26 Este -- -- -- 68
2020-05-17 23:00:00 19.9 16 Este 32 Este -- -- -- 69
2020-05-17 22:00:00 20.2 17 Este 28 Este -- -- -- 70
2020-05-17 21:00:00 20.4 15 Este 22 Este -- -- -- 68
2020-05-17 20:00:00 20.8 13 Este 25 Este -- -- -- 64
2020-05-17 19:00:00 21.3 13 Nordeste 24 Este -- -- -- 63
2020-05-17 18:00:00 21.5 11 Nordeste 22 Nordeste -- -- -- 61
2020-05-17 17:00:00 21.9 14 Nordeste 24 Nordeste -- -- -- 60
2020-05-17 16:00:00 21.6 13 Nordeste 27 Nordeste -- -- -- 61
2020-05-17 15:00:00 21.4 12 Nordeste 23 Este -- -- -- 64
2020-05-17 14:00:00 21.1 14 Nordeste 27 Nordeste -- -- -- 65
2020-05-17 13:00:00 21.1 14 Nordeste 21 Nordeste -- -- -- 63
2020-05-17 12:00:00 20 7 Nordeste 28 Nordeste -- -- -- 69
2020-05-17 11:00:00 19.9 15 Nordeste 26 Nordeste -- -- -- 66
2020-05-17 10:00:00 20.3 14 Nordeste 21 Nordeste -- -- -- 61
2020-05-17 09:00:00 20.4 13 Nordeste 22 Nordeste -- -- -- 56
2020-05-17 08:00:00 19.6 13 Nordeste 24 Este -- -- -- 60
2020-05-17 07:00:00 19.4 12 Este 20 Este -- -- -- 63
2020-05-17 06:00:00 19.1 8 Este 21 Nordeste -- -- -- 60
2020-05-17 05:00:00 19.1 9 Sudeste 27 Nordeste -- -- -- 57
2020-05-17 04:00:00 19.6 14 Nordeste 30 Este -- -- -- 62
2020-05-17 03:00:00 19.6 17 Nordeste 29 Este -- -- -- 61
2020-05-17 02:00:00 19.6 18 Este 27 Nordeste -- -- -- 63
2020-05-17 01:00:00 19.8 16 Nordeste 27 Nordeste -- -- -- 64
2020-05-17 00:00:00 19.9 16 Nordeste 30 Este -- -- -- 65
2020-05-16 23:00:00 20 14 Este 26 Nordeste -- -- -- 66
2020-05-16 22:00:00 19.9 18 Nordeste 27 Nordeste -- -- -- 64
2020-05-16 21:00:00 20 16 Nordeste 27 Nordeste -- -- -- 67
2020-05-16 20:00:00 20.4 13 Nordeste 20 Nordeste -- -- -- 66
2020-05-16 19:00:00 20.8 13 Nordeste 20 Nordeste -- -- -- 61
2020-05-16 18:00:00 20.7 11 Nordeste 22 Nordeste -- -- -- 66
2020-05-16 17:00:00 21.1 18 Nordeste 26 Nordeste -- -- -- 68
2020-05-16 16:00:00 21.5 17 Nordeste 23 Nordeste -- -- -- 67
2020-05-16 15:00:00 21.2 9 Nordeste 16 Nordeste -- -- -- 66
2020-05-16 14:00:00 21 9 Nordeste 22 Norte -- -- -- 65
2020-05-16 13:00:00 21.9 14 Nordeste 25 Este -- -- -- 66
2020-05-16 12:00:00 22.3 12 Nordeste 24 Nordeste -- -- -- 61
2020-05-16 11:00:00 22.9 13 Nordeste 25 Este -- -- -- 61
2020-05-16 10:00:00 22 19 Este 27 Nordeste -- -- -- 61
2020-05-16 09:00:00 19.9 11 Nordeste 19 Este -- -- -- 68
2020-05-16 08:00:00 18.8 5 Sudeste 16 Sudeste -- -- -- 65
2020-05-16 07:00:00 19.2 4 Sudeste 22 Nordeste -- -- -- 68
2020-05-16 06:00:00 19.5 13 Nordeste 25 Nordeste -- -- -- 71
2020-05-16 05:00:00 19.7 16 Nordeste 26 Nordeste -- -- -- 72
2020-05-16 04:00:00 19.6 11 Este 23 Este -- -- -- 71
2020-05-16 03:00:00 19.8 16 Nordeste 24 Nordeste -- -- -- 72
2020-05-16 02:00:00 19.8 12 Este 25 Este -- -- -- 71
2020-05-16 01:00:00 20 13 Este 32 Nordeste -- -- -- 71
2020-05-16 00:00:00 20.1 18 Nordeste 31 Nordeste -- -- -- 70
2020-05-15 23:00:00 20.3 13 Nordeste 24 Nordeste -- -- -- 70
2020-05-15 22:00:00 20.3 14 Nordeste 24 Nordeste -- -- -- 70
2020-05-15 21:00:00 20.4 18 Nordeste 27 Nordeste -- -- -- 69
2020-05-15 20:00:00 20.6 14 Nordeste 25 Nordeste -- -- -- 69
2020-05-15 19:00:00 21.1 13 Nordeste 22 Nordeste -- -- -- 65
2020-05-15 18:00:00 21.3 10 Nordeste 21 Nordeste -- -- -- 63
2020-05-15 17:00:00 21.6 12 Norte 26 Norte -- -- -- 63
2020-05-15 16:00:00 21.3 16 Nordeste 27 Nordeste -- -- -- 66
2020-05-15 15:00:00 21.6 18 Norte 28 Norte -- -- -- 64
2020-05-15 14:00:00 23.4 11 Nordeste 23 Este -- -- -- 56
2020-05-15 13:00:00 23.1 7 Nordeste 16 Norte -- -- -- 58
2020-05-15 12:00:00 23.2 9 Nordeste 18 Este -- -- -- 52
2020-05-15 11:00:00 22.5 11 Este 27 Norte -- -- -- 55
2020-05-15 10:00:00 21.5 10 Este 21 Nordeste -- -- -- 60
2020-05-15 09:00:00 19.8 11 Nordeste 21 Nordeste -- -- -- 62
2020-05-15 08:00:00 18.4 5 Sudeste 30 Nordeste -- -- -- 60
2020-05-15 07:00:00 19.1 19 Nordeste 33 Norte -- -- -- 64
2020-05-15 06:00:00 19.1 18 Norte 31 Norte -- -- -- 64
2020-05-15 05:00:00 19.1 17 Norte 33 Norte -- -- -- 64
2020-05-15 04:00:00 19.3 22 Norte 30 Norte -- -- -- 66
2020-05-15 03:00:00 19.3 15 Norte 29 Norte -- -- -- 64
2020-05-15 02:00:00 19.4 15 Norte 30 Norte -- -- -- 68
2020-05-15 01:00:00 19.4 16 Nordeste 30 Norte -- -- -- 68
2020-05-15 00:00:00 19.6 18 Norte 28 Norte -- -- -- 69
2020-05-14 23:00:00 19.8 15 Norte 27 Norte -- -- -- 65
2020-05-14 22:00:00 19.8 14 Norte 31 Norte -- -- -- 62
2020-05-14 21:00:00 20.1 15 Nordeste 24 Nordeste -- -- -- 64
2020-05-14 20:00:00 20.6 14 Nordeste 24 Norte -- -- -- 56
2020-05-14 19:00:00 21.1 14 Norte 22 Nordeste -- -- -- 58
2020-05-14 18:00:00 21.4 14 Nordeste 21 Nordeste -- -- -- 62
2020-05-14 17:00:00 22.2 13 Norte 27 Norte -- -- -- 58
2020-05-14 16:00:00 22.8 18 Norte 28 Norte -- -- -- 55
2020-05-14 15:00:00 22.7 14 Norte 23 Norte -- -- -- 56
2020-05-14 14:00:00 22.8 17 Norte 26 Norte -- -- -- 58
2020-05-14 13:00:00 23 10 Nordeste 18 Norte -- -- -- 58
2020-05-14 12:00:00 22.3 9 Nordeste 18 Norte -- -- -- 55
2020-05-14 11:00:00 22.6 10 Norte 21 Norte -- -- -- 56
2020-05-14 10:00:00 21.4 10 Norte 26 Norte -- -- -- 61
2020-05-14 09:00:00 19.8 17 Norte 27 Norte -- -- -- 66
2020-05-14 08:00:00 19.5 6 Nordeste 25 Sudeste -- -- -- 68
2020-05-14 07:00:00 18.7 12 Sudeste 19 Sudeste -- -- -- 66
2020-05-14 06:00:00 19.4 8 Nordeste 17 Nordeste -- -- -- 68
2020-05-14 05:00:00 18.8 7 Este 22 Norte -- -- -- 62
2020-05-14 04:00:00 19.2 5 Este 31 Este -- -- -- 61
2020-05-14 03:00:00 18.7 14 Sudeste 26 Sudeste -- -- -- 54
2020-05-14 02:00:00 18.9 6 Sudeste 20 Norte -- -- -- 61
2020-05-14 01:00:00 19.8 11 Norte 24 Norte -- -- -- 63
2020-05-14 00:00:00 19.7 9 Nordeste 18 Nordeste -- -- -- 61
2020-05-13 23:00:00 19.6 13 Nordeste 23 Norte -- -- -- 60
2020-05-13 22:00:00 20 12 Norte 25 Norte -- -- -- 64
2020-05-13 21:00:00 20.1 9 Nordeste 19 Nordeste -- -- -- 64
2020-05-13 20:00:00 20.7 10 Norte 24 Nordeste -- -- -- 60
2020-05-13 19:00:00 21.2 9 Norte 21 Norte -- -- -- 60
2020-05-13 18:00:00 21.3 12 Nordeste 20 Norte -- -- -- 63
2020-05-13 17:00:00 22 15 Norte 24 Norte -- -- -- 64
2020-05-13 16:00:00 22.7 13 Norte 23 Norte -- -- -- 63
2020-05-13 15:00:00 22.4 18 Norte 24 Noroeste -- -- -- 62
2020-05-13 14:00:00 23 8 Norte 15 Nordeste -- -- -- 67
2020-05-13 13:00:00 24.2 7 Nordeste 21 Este -- -- -- 57
2020-05-13 12:00:00 23.8 10 Nordeste 25 Nordeste -- -- -- 56
2020-05-13 11:00:00 22.7 4 Nordeste 18 Nordeste -- -- -- 61
2020-05-13 10:00:00 22.1 7 Este 14 Este -- -- -- 66
2020-05-13 09:00:00 20.7 9 Nordeste 19 Norte -- -- -- 72
2020-05-13 08:00:00 20 12 Norte 18 Norte -- -- -- 74
2020-05-13 07:00:00 19.8 11 Norte 21 Nordeste -- -- -- 73
2020-05-13 06:00:00 19.9 10 Norte 26 Norte -- -- -- 73
2020-05-13 05:00:00 20.1 17 Norte 25 Norte -- -- -- 76
2020-05-13 04:00:00 20.1 11 Norte 19 Nordeste -- -- -- 74
2020-05-13 03:00:00 20.3 11 Norte 24 Norte -- -- -- 75
2020-05-13 02:00:00 20.5 15 Norte 26 Norte -- -- -- 75
2020-05-13 01:00:00 20.4 10 Nordeste 22 Nordeste -- -- -- 76
2020-05-13 00:00:00 20.4 13 Nordeste 22 Nordeste -- -- -- 75
2020-05-12 23:00:00 20.5 12 Nordeste 21 Nordeste -- -- -- 73
2020-05-12 22:00:00 20.8 13 Norte 21 Norte -- -- -- 73
2020-05-12 21:00:00 21 14 Norte 22 Norte -- -- -- 72
2020-05-12 20:00:00 21.4 11 Norte 18 Norte -- -- -- 69
2020-05-12 19:00:00 21.7 11 Norte 22 Norte -- -- -- 66
2020-05-12 18:00:00 22 9 Norte 20 Norte -- -- -- 63
2020-05-12 17:00:00 22.5 15 Norte 23 Norte -- -- -- 63
2020-05-12 16:00:00 22.1 12 Norte 21 Nordeste -- -- -- 65
2020-05-12 15:00:00 22.9 11 Norte 19 Norte -- -- -- 59
2020-05-12 14:00:00 23.6 8 Nordeste 19 Nordeste -- -- -- 54
2020-05-12 13:00:00 23.1 9 Nordeste 18 Nordeste -- -- -- 55
2020-05-12 12:00:00 22.7 11 Nordeste 19 Norte -- -- -- 59
2020-05-12 11:00:00 22.4 10 Norte 26 Norte -- -- -- 58
2020-05-12 10:00:00 20.5 18 Norte 26 Norte -- -- -- 68
2020-05-12 09:00:00 20.4 13 Norte 27 Norte -- -- -- 69
2020-05-12 08:00:00 20.2 19 Norte 26 Norte -- -- -- 72
2020-05-12 07:00:00 20.1 8 Norte 15 Norte -- -- -- 68
2020-05-12 06:00:00 20 7 Nordeste 21 Norte -- -- -- 65
2020-05-12 05:00:00 20.1 11 Norte 22 Nordeste -- -- -- 68
2020-05-12 04:00:00 20 12 Nordeste 19 Nordeste -- -- -- 65
2020-05-12 03:00:00 20 10 Norte 22 Nordeste -- -- -- 65
2020-05-12 02:00:00 20.1 8 Nordeste 21 Norte -- -- -- 70
2020-05-12 01:00:00 20.1 10 Norte 21 Norte -- -- -- 69
2020-05-12 00:00:00 20.2 10 Norte 29 Norte -- -- -- 69
2020-05-11 23:00:00 20.6 10 Norte 17 Norte -- -- -- 73
2020-05-11 22:00:00 20.7 8 Nordeste 21 Nordeste -- -- -- 74
2020-05-11 21:00:00 21.1 8 Nordeste 27 Norte -- -- -- 79
2020-05-11 20:00:00 21.1 3 Sudoeste 26 Noroeste -- -- -- 81
2020-05-11 19:00:00 22.7 8 Norte 15 Norte -- -- -- 72
2020-05-11 18:00:00 24.3 8 Norte 19 Norte -- -- -- 60
2020-05-11 17:00:00 24.7 8 Este 14 Sudeste -- -- -- 63
2020-05-11 16:00:00 24.3 6 Nordeste 13 Norte -- -- -- 63
2020-05-11 15:00:00 24.9 6 Norte 10 Este -- -- -- 61
2020-05-11 14:00:00 24.4 7 Nordeste 12 Norte -- -- -- 61
2020-05-11 13:00:00 24.7 8 Nordeste 15 Nordeste -- -- -- 57
2020-05-11 12:00:00 24.5 7 Nordeste 17 Nordeste -- -- -- 62
2020-05-11 11:00:00 24.7 13 Este 19 Este -- -- -- 61
2020-05-11 10:00:00 23.4 7 Nordeste 10 Este -- -- -- 70
2020-05-11 09:00:00 22.5 6 Este 10 Este -- -- -- 71
2020-05-11 08:00:00 20.5 7 Nordeste 15 Norte -- -- -- 79
2020-05-11 07:00:00 18.8 8 Sudeste 12 Sudeste -- -- -- 75
2020-05-11 06:00:00 19.1 7 Sur 15 Sudeste -- -- -- 74
2020-05-11 05:00:00 20.1 9 Sudeste 18 Sudeste -- -- -- 74
2020-05-11 04:00:00 19.5 8 Sur 12 Nordeste -- -- -- 74
2020-05-11 03:00:00 20.8 4 Este 23 Nordeste -- -- -- 74
2020-05-11 02:00:00 21.1 16 Nordeste 26 Nordeste -- -- -- 77
2020-05-11 01:00:00 21 19 Este 27 Este -- -- -- 77
2020-05-11 00:00:00 21.2 15 Este 32 Este -- -- -- 76
2020-05-10 23:00:00 21.4 15 Este 27 Este -- -- -- 73
2020-05-10 22:00:00 21.1 18 Este 34 Nordeste -- -- -- 75
2020-05-10 21:00:00 21.4 17 Nordeste 27 Nordeste -- -- -- 76
2020-05-10 20:00:00 21.9 10 Nordeste 20 Nordeste -- -- -- 74
2020-05-10 19:00:00 22.1 15 Nordeste 25 Nordeste -- -- -- 74
2020-05-10 18:00:00 22.7 11 Nordeste 22 Nordeste -- -- -- 72
2020-05-10 17:00:00 22.9 14 Nordeste 21 Norte -- -- -- 71
2020-05-10 16:00:00 23.7 13 Nordeste 18 Nordeste -- -- -- 67
2020-05-10 15:00:00 24.2 13 Nordeste 19 Nordeste -- -- -- 64
2020-05-10 14:00:00 24.3 12 Nordeste 19 Nordeste -- -- -- 61
2020-05-10 13:00:00 24.1 7 Norte 11 Nordeste -- -- -- 59
2020-05-10 12:00:00 23.7 8 Nordeste 15 Nordeste -- -- -- 61
2020-05-10 11:00:00 23.4 8 Nordeste 16 Nordeste -- -- -- 62
2020-05-10 10:00:00 23.1 10 Este 15 Este -- -- -- 63
2020-05-10 09:00:00 21.8 9 Este 16 Sudeste -- -- -- 68
2020-05-10 08:00:00 19.2 9 Sudeste 18 Nordeste -- -- -- 73
2020-05-10 07:00:00 20 12 Nordeste 22 Este -- -- -- 76
2020-05-10 06:00:00 20.1 15 Nordeste 24 Nordeste -- -- -- 76
2020-05-10 05:00:00 19.9 9 Nordeste 23 Sudeste -- -- -- 76
2020-05-10 04:00:00 19.7 13 Sudeste 23 Este -- -- -- 72
2020-05-10 03:00:00 20.3 13 Este 26 Este -- -- -- 74
2020-05-10 02:00:00 20.7 17 Nordeste 25 Nordeste -- -- -- 76
2020-05-10 01:00:00 20.9 15 Nordeste 25 Nordeste -- -- -- 76
2020-05-10 00:00:00 20.9 13 Nordeste 23 Nordeste -- -- -- 77
2020-05-09 23:00:00 20.9 17 Nordeste 26 Nordeste -- -- -- 75
2020-05-09 22:00:00 21.2 16 Nordeste 25 Nordeste -- -- -- 76
2020-05-09 21:00:00 21.2 7 Nordeste 17 Nordeste -- -- -- 74
2020-05-09 20:00:00 21.7 13 Nordeste 18 Nordeste -- -- -- 72
2020-05-09 19:00:00 21.8 14 Nordeste 19 Norte -- -- -- 72
2020-05-09 18:00:00 22 12 Norte 19 Norte -- -- -- 72
2020-05-09 17:00:00 22.4 13 Norte 20 Nordeste -- -- -- 73
2020-05-09 16:00:00 23 10 Nordeste 16 Nordeste -- -- -- 70
2020-05-09 15:00:00 24.3 8 Nordeste 15 Nordeste -- -- -- 66
2020-05-09 14:00:00 24 7 Nordeste 14 Este -- -- -- 68
2020-05-09 13:00:00 23.4 8 Nordeste 14 Nordeste -- -- -- 71
2020-05-09 12:00:00 23.2 10 Nordeste 13 Nordeste -- -- -- 69
2020-05-09 11:00:00 23.5 6 Nordeste 9 Nordeste -- -- -- 61
2020-05-09 10:00:00 22.4 2 Este 5 Nordeste -- -- -- 62
2020-05-09 09:00:00 20.4 6 Sudeste 9 Sur -- -- -- 60
2020-05-09 08:00:00 18.1 0 Calma 9 Sur -- -- -- 69
2020-05-09 07:00:00 17.8 6 Sur 9 Sudeste -- -- -- 71
2020-05-09 06:00:00 17.9 4 Sur 10 Sur -- -- -- 70
2020-05-09 05:00:00 17.7 5 Sudeste 10 Sudeste -- -- -- 64
2020-05-09 04:00:00 18.4 6 Sur 12 Sur -- -- -- 72
2020-05-09 03:00:00 19.3 10 Sur 12 Sur -- -- -- 74
2020-05-09 02:00:00 19.3 6 Sur 8 Sudeste -- -- -- 73
2020-05-09 01:00:00 19.8 6 Sur 10 Sudeste -- -- -- 72
2020-05-09 00:00:00 20.1 6 Sur 9 Sur -- -- -- 70
2020-05-08 23:00:00 20.9 6 Sudeste 10 Este -- -- -- 69
2020-05-08 22:00:00 21 8 Este 14 Este -- -- -- 71
2020-05-08 21:00:00 21.4 10 Nordeste 19 Nordeste -- -- -- 70
2020-05-08 20:00:00 21.9 11 Nordeste 21 Nordeste -- -- -- 68
2020-05-08 19:00:00 22.4 9 Nordeste 13 Nordeste -- -- -- 67
2020-05-08 18:00:00 23 7 Nordeste 12 Nordeste -- -- -- 65
2020-05-08 17:00:00 23.4 5 Nordeste 10 Norte -- -- -- 62
2020-05-08 16:00:00 23.9 5 Norte 11 Norte -- -- -- 62
2020-05-08 15:00:00 23.8 7 Norte 11 Nordeste -- -- -- 62
2020-05-08 14:00:00 23.8 5 Nordeste 12 Nordeste -- -- -- 62
2020-05-08 13:00:00 24 7 Nordeste 11 Nordeste -- -- -- 62
2020-05-08 12:00:00 23.4 6 Nordeste 12 Este -- -- -- 61
2020-05-08 11:00:00 23.2 8 Nordeste 12 Nordeste -- -- -- 63
2020-05-08 10:00:00 22.4 6 Nordeste 10 Nordeste -- -- -- 64
2020-05-08 09:00:00 21.5 5 Este 8 Nordeste -- -- -- 68
2020-05-08 08:00:00 18 4 Sudoeste 10 Sur -- -- -- 72
2020-05-08 07:00:00 17.7 6 Sur 12 Sur -- -- -- 73
2020-05-08 06:00:00 18.1 8 Sur 12 Sur -- -- -- 73
2020-05-08 05:00:00 18.6 7 Sur 11 Sudeste -- -- -- 74
2020-05-08 04:00:00 18.9 8 Sur 13 Sudeste -- -- -- 72
2020-05-08 03:00:00 19.9 5 Sudeste 11 Sudeste -- -- -- 71
2020-05-08 02:00:00 20 5 Sudeste 11 Nordeste -- -- -- 72
2020-05-08 01:00:00 20.2 3 Este 9 Este -- -- -- 71
2020-05-08 00:00:00 20.5 8 Nordeste 14 Nordeste -- -- -- 72
2020-05-07 23:00:00 20.5 5 Este 14 Este -- -- -- 70
2020-05-07 22:00:00 20.6 9 Nordeste 15 Nordeste -- -- -- 70
2020-05-07 21:00:00 20.8 8 Nordeste 15 Nordeste -- -- -- 70
2020-05-07 20:00:00 21.3 8 Nordeste 13 Nordeste -- -- -- 68
2020-05-07 19:00:00 21.8 8 Nordeste 16 Nordeste -- -- -- 65
2020-05-07 18:00:00 22.1 8 Nordeste 14 Norte -- -- -- 66
2020-05-07 17:00:00 22.6 7 Norte 13 Nordeste -- -- -- 65
2020-05-07 16:00:00 23.5 8 Nordeste 11 Nordeste -- -- -- 61
2020-05-07 15:00:00 23.9 6 Norte 10 Norte -- -- -- 60
2020-05-07 14:00:00 23.7 7 Norte 13 Norte -- -- -- 61
2020-05-07 13:00:00 23 10 Norte 14 Nordeste -- -- -- 64
2020-05-07 12:00:00 21.5 8 Norte 13 Norte -- -- -- 72
2020-05-07 11:00:00 23.2 7 Nordeste 14 Nordeste -- -- -- 62
2020-05-07 10:00:00 21.7 9 Nordeste 16 Nordeste -- -- -- 69
2020-05-07 09:00:00 21.7 6 Nordeste 13 Sudeste -- -- -- 68
2020-05-07 08:00:00 19.3 7 Este 17 Sudeste -- -- -- 76
2020-05-07 07:00:00 19.3 4 Sur 10 Sudeste -- -- -- 70
2020-05-07 06:00:00 19 7 Sur 11 Sur -- -- -- 70
2020-05-07 05:00:00 19.5 9 Sur 13 Sudeste -- -- -- 69
2020-05-07 04:00:00 19.8 8 Sudeste 14 Nordeste -- -- -- 73
2020-05-07 03:00:00 19.7 5 Sur 16 Nordeste -- -- -- 73
2020-05-07 02:00:00 20.3 10 Nordeste 21 Nordeste -- -- -- 75
2020-05-07 01:00:00 20.5 9 Nordeste 18 Norte -- -- -- 74
2020-05-07 00:00:00 20.5 11 Este 25 Nordeste -- -- -- 76
2020-05-06 23:00:00 20.9 14 Nordeste 24 Nordeste -- -- -- 74
2020-05-06 22:00:00 20.8 6 Nordeste 11 Este -- -- -- 72
2020-05-06 21:00:00 21.1 5 Nordeste 10 Nordeste -- -- -- 72
2020-05-06 20:00:00 21.7 6 Nordeste 9 Este -- -- -- 69
2020-05-06 19:00:00 22.4 5 Nordeste 10 Nordeste -- -- -- 67
2020-05-06 18:00:00 22.8 8 Este 14 Este -- -- -- 65
2020-05-06 17:00:00 23.3 9 Nordeste 15 Este -- -- -- 64
2020-05-06 16:00:00 24.1 9 Nordeste 15 Este -- -- -- 62
2020-05-06 15:00:00 24.5 6 Nordeste 12 Nordeste -- -- -- 60
2020-05-06 14:00:00 24.5 8 Nordeste 12 Nordeste -- -- -- 60
2020-05-06 13:00:00 23.6 8 Nordeste 13 Nordeste -- -- -- 62
2020-05-06 12:00:00 23.2 8 Nordeste 15 Nordeste -- -- -- 63
2020-05-06 11:00:00 21.7 9 Nordeste 13 Nordeste -- -- -- 67
2020-05-06 10:00:00 21.6 4 Nordeste 11 Este -- -- -- 65
2020-05-06 09:00:00 19.8 6 Este 10 Este -- -- -- 62
2020-05-06 08:00:00 18.4 5 Sur 14 Sur -- -- -- 62
2020-05-06 07:00:00 18.4 7 Sur 14 Sur -- -- -- 67
2020-05-06 06:00:00 18.4 8 Sur 13 Sudeste -- -- -- 63
2020-05-06 05:00:00 18.7 8 Sur 14 Sudeste -- -- -- 67
2020-05-06 04:00:00 19.1 9 Sur 18 Sudeste -- -- -- 68
2020-05-06 03:00:00 18.9 8 Sur 15 Sur -- -- -- 66
2020-05-06 02:00:00 19.3 9 Sudeste 17 Sur -- -- -- 67
2020-05-06 01:00:00 19.5 9 Sudeste 14 Sudeste -- -- -- 63
2020-05-06 00:00:00 19.4 6 Sudeste 14 Sudeste -- -- -- 60
2020-05-05 23:00:00 19.9 9 Sudeste 15 Sudeste -- -- -- 64
2020-05-05 22:00:00 20.6 6 Este 13 Este -- -- -- 68
2020-05-05 21:00:00 21.2 8 Este 13 Este -- -- -- 68
2020-05-05 20:00:00 22 8 Este 16 Este -- -- -- 64
2020-05-05 19:00:00 23.1 10 Este 20 Este -- -- -- 62
2020-05-05 18:00:00 23.7 10 Nordeste 18 Este -- -- -- 59
2020-05-05 17:00:00 24 9 Nordeste 16 Este -- -- -- 54
2020-05-05 16:00:00 24 7 Nordeste 12 Nordeste -- -- -- 55
2020-05-05 15:00:00 24 8 Nordeste 12 Nordeste -- -- -- 54
2020-05-05 14:00:00 24.1 9 Nordeste 14 Nordeste -- -- -- 56
2020-05-05 13:00:00 24.2 10 Nordeste 15 Este -- -- -- 56
2020-05-05 12:00:00 24 10 Nordeste 14 Este -- -- -- 57
2020-05-05 11:00:00 23.5 9 Nordeste 14 Este -- -- -- 58
2020-05-05 10:00:00 22.7 8 Nordeste 13 Nordeste -- -- -- 60
2020-05-05 09:00:00 21.1 6 Este 10 Este -- -- -- 66
2020-05-05 08:00:00 17.8 6 Sur 11 Sur -- -- -- 69
2020-05-05 07:00:00 17.7 9 Sur 10 Sur -- -- -- 71
2020-05-05 06:00:00 18.2 6 Sur 11 Sur -- -- -- 71
2020-05-05 05:00:00 18.4 8 Sur 12 Sur -- -- -- 68
2020-05-05 04:00:00 18.4 6 Sur 12 Sur -- -- -- 63
2020-05-05 03:00:00 18.8 6 Sur 12 Sur -- -- -- 62
2020-05-05 02:00:00 19.1 8 Sur 14 Sudeste -- -- -- 62
2020-05-05 01:00:00 19.3 9 Sur 13 Sudeste -- -- -- 62
2020-05-05 00:00:00 20.1 7 Sudeste 16 Nordeste -- -- -- 62
2020-05-04 23:00:00 20.7 10 Nordeste 18 Nordeste -- -- -- 66
2020-05-04 22:00:00 20.9 9 Nordeste 13 Nordeste -- -- -- 64
2020-05-04 21:00:00 21.1 8 Nordeste 13 Norte -- -- -- 61
2020-05-04 20:00:00 21.9 6 Nordeste 15 Nordeste -- -- -- 57
2020-05-04 19:00:00 22.9 7 Norte 12 Norte -- -- -- 56
2020-05-04 18:00:00 23.6 7 Norte 11 Norte -- -- -- 51
2020-05-04 17:00:00 23.3 7 Norte 12 Norte -- -- -- 55
2020-05-04 16:00:00 23.4 6 Norte 12 Norte -- -- -- 53
2020-05-04 15:00:00 23.7 7 Norte 14 Norte -- -- -- 54
2020-05-04 14:00:00 22.8 6 Norte 12 Norte -- -- -- 57
2020-05-04 13:00:00 22.2 6 Norte 14 Norte -- -- -- 61
2020-05-04 12:00:00 22.4 9 Norte 15 Norte -- -- -- 63
2020-05-04 11:00:00 21.8 10 Norte 15 Norte -- -- -- 66
2020-05-04 10:00:00 22.8 6 Norte 11 Norte -- -- -- 63
2020-05-04 09:00:00 20.5 9 Noroeste 16 Noroeste -- -- -- 72
2020-05-04 08:00:00 19.9 7 Norte 13 Norte -- -- -- 76
2020-05-04 07:00:00 19.3 3 Sur 5 Sur -- -- -- 75
2020-05-04 06:00:00 19.5 3 Sur 8 Sudoeste -- -- -- 75
2020-05-04 05:00:00 19.9 4 Oeste 10 Oeste -- -- -- 73
2020-05-04 04:00:00 19.2 3 Sur 6 Sudoeste -- -- -- 73
2020-05-04 03:00:00 19.6 5 Oeste 10 Sudeste -- -- -- 72
2020-05-04 02:00:00 20.2 3 Sur 7 Sudeste -- -- -- 72
2020-05-04 01:00:00 21 2 Este 9 Nordeste -- -- -- 72
2020-05-04 00:00:00 21.3 3 Noroeste 17 Oeste -- -- -- 70
2020-05-03 23:00:00 21.4 9 Oeste 29 Noroeste -- -- -- 68
2020-05-03 22:00:00 21.9 16 Noroeste 36 Noroeste -- -- -- 74
2020-05-03 21:00:00 22.1 18 Noroeste 47 Norte -- -- -- 71
2020-05-03 20:00:00 22.8 15 Norte 40 Noroeste -- -- -- 65
2020-05-03 19:00:00 24.1 19 Noroeste 37 Noroeste -- -- -- 59
2020-05-03 18:00:00 26.3 11 Noroeste 36 Noroeste -- -- -- 50
2020-05-03 17:00:00 26.9 11 Norte 19 Este -- -- -- 45
2020-05-03 16:00:00 26.4 11 Nordeste 17 Este -- -- -- 53
2020-05-03 15:00:00 25.2 8 Nordeste 31 Oeste -- -- -- 54
2020-05-03 14:00:00 25.3 19 Noroeste 40 Noroeste -- -- -- 52
2020-05-03 13:00:00 24.5 8 Nordeste 10 Nordeste -- -- -- 56
2020-05-03 12:00:00 23.6 8 Nordeste 15 Nordeste -- -- -- 57
2020-05-03 11:00:00 23.1 8 Este 12 Este -- -- -- 58
2020-05-03 10:00:00 22.1 8 Noroeste 23 Oeste -- -- -- 61
2020-05-03 09:00:00 19.7 10 Noroeste 22 Oeste -- -- -- 70
2020-05-03 08:00:00 18.3 8 Oeste 11 Sudoeste -- -- -- 73
2020-05-03 07:00:00 18.5 6 Oeste 18 Sur -- -- -- 74
2020-05-03 06:00:00 17.6 8 Sur 15 Sudoeste -- -- -- 75
2020-05-03 05:00:00 17.8 4 Sudoeste 13 Sur -- -- -- 75
2020-05-03 04:00:00 18.2 7 Sur 12 Sur -- -- -- 73
2020-05-03 03:00:00 18.8 6 Sudoeste 22 Sudoeste -- -- -- 73
2020-05-03 02:00:00 18.6 0 Calma 14 Oeste -- -- -- 74
2020-05-03 01:00:00 18.5 6 Sudoeste 12 Sur -- -- -- 74
2020-05-03 00:00:00 19 7 Sur 13 Sudoeste -- -- -- 72
2020-05-02 23:00:00 19.7 8 Sur 21 Noroeste -- -- -- 69
2020-05-02 22:00:00 20.6 12 Noroeste 18 Oeste -- -- -- 72
2020-05-02 21:00:00 20.7 3 Nordeste 10 Noroeste -- -- -- 73
2020-05-02 20:00:00 21 4 Nordeste 8 Nordeste -- -- -- 71
2020-05-02 19:00:00 22 6 Nordeste 12 Nordeste -- -- -- 68
2020-05-02 18:00:00 21.7 4 Nordeste 10 Nordeste -- -- -- 68
2020-05-02 17:00:00 22.3 7 Nordeste 10 Nordeste -- -- -- 67
2020-05-02 16:00:00 22.2 6 Nordeste 10 Nordeste -- -- -- 68
2020-05-02 15:00:00 22 5 Norte 11 Norte -- -- -- 68
2020-05-02 14:00:00 21.8 7 Nordeste 12 Nordeste -- -- -- 69
2020-05-02 13:00:00 22.4 6 Norte 14 Nordeste -- -- -- 67
2020-05-02 12:00:00 22.8 7 Nordeste 15 Nordeste -- -- -- 66
2020-05-02 11:00:00 23.1 9 Este 18 Este -- -- -- 62
2020-05-02 10:00:00 22.7 12 Este 19 Este -- -- -- 65
2020-05-02 09:00:00 21.3 8 Este 14 Este -- -- -- 69
2020-05-02 08:00:00 18 8 Sudeste 14 Sudeste -- -- -- 76
2020-05-02 07:00:00 18.4 7 Sur 30 Oeste -- -- -- 73
2020-05-02 06:00:00 19.4 14 Oeste 24 Oeste -- -- -- 75
2020-05-02 05:00:00 19.1 9 Oeste 18 Sudoeste -- -- -- 74
2020-05-02 04:00:00 19.3 5 Este 10 Oeste -- -- -- 75
2020-05-02 03:00:00 19.4 6 Noroeste 14 Oeste -- -- -- 75
2020-05-02 02:00:00 19.6 8 Este 30 Nordeste -- -- -- 76
2020-05-02 01:00:00 19.7 15 Nordeste 27 Nordeste -- -- -- 76
2020-05-02 00:00:00 20 11 Este 24 Nordeste -- -- -- 75
2020-05-01 23:00:00 20.2 10 Nordeste 22 Nordeste -- -- -- 76
2020-05-01 22:00:00 20.3 13 Nordeste 26 Nordeste -- -- -- 78
2020-05-01 21:00:00 20.4 16 Nordeste 24 Nordeste -- -- -- 79
2020-05-01 20:00:00 20.9 13 Nordeste 21 Nordeste -- -- -- 76
2020-05-01 19:00:00 21.1 10 Nordeste 19 Nordeste -- -- -- 75
2020-05-01 18:00:00 21.3 13 Nordeste 22 Nordeste -- -- -- 73
2020-05-01 17:00:00 21.7 16 Nordeste 26 Este -- -- -- 71
2020-05-01 16:00:00 22.1 18 Nordeste 29 Nordeste -- -- -- 70
2020-05-01 15:00:00 22.6 17 Nordeste 28 Nordeste -- -- -- 69
2020-05-01 14:00:00 23.6 8 Norte 21 Nordeste -- -- -- 65
2020-05-01 13:00:00 22.6 12 Nordeste 27 Nordeste -- -- -- 69
2020-05-01 12:00:00 22.6 13 Nordeste 26 Nordeste -- -- -- 67
2020-05-01 11:00:00 21.7 17 Nordeste 26 Nordeste -- -- -- 70
2020-05-01 10:00:00 21.5 10 Este 24 Nordeste -- -- -- 70
2020-05-01 09:00:00 20.6 5 Nordeste 14 Oeste -- -- -- 73
2020-05-01 08:00:00 17.9 2 Oeste 10 Oeste -- -- -- 79
2020-05-01 07:00:00 18.2 6 Noroeste 17 Oeste -- -- -- 79
2020-05-01 06:00:00 17.8 8 Sur 16 Sudeste -- -- -- 77
2020-05-01 05:00:00 17.5 9 Sur 15 Sudeste -- -- -- 77
2020-05-01 04:00:00 17.7 9 Sudeste 16 Sur -- -- -- 75
2020-05-01 03:00:00 17.9 8 Sur 14 Sudeste -- -- -- 76
2020-05-01 02:00:00 18.7 10 Sudeste 19 Sudeste -- -- -- 77
2020-05-01 01:00:00 19.1 8 Este 19 Sudeste -- -- -- 77
2020-05-01 00:00:00 19.2 6 Sudeste 22 Este -- -- -- 76
2020-04-30 23:00:00 19.3 7 Este 19 Este -- -- -- 77
2020-04-30 22:00:00 19.8 8 Este 21 Nordeste -- -- -- 75
2020-04-30 21:00:00 20.2 15 Nordeste 27 Nordeste -- -- -- 74
2020-04-30 20:00:00 20.6 9 Este 19 Este -- -- -- 74
2020-04-30 19:00:00 20.9 11 Este 21 Nordeste -- -- -- 73
2020-04-30 18:00:00 21.7 12 Nordeste 26 Nordeste -- -- -- 70
2020-04-30 17:00:00 22 18 Nordeste 31 Nordeste -- -- -- 70
2020-04-30 16:00:00 21.9 14 Nordeste 28 Nordeste -- -- -- 67
2020-04-30 15:00:00 22.6 18 Nordeste 32 Nordeste -- -- -- 65
2020-04-30 14:00:00 22.1 15 Nordeste 34 Nordeste -- -- -- 67
2020-04-30 13:00:00 22.3 22 Nordeste 40 Nordeste -- -- -- 65
2020-04-30 12:00:00 22.2 22 Nordeste 36 Nordeste -- -- -- 66
2020-04-30 11:00:00 22 18 Nordeste 30 Nordeste -- -- -- 66
2020-04-30 10:00:00 22.3 13 Este 21 Este -- -- -- 64
2020-04-30 09:00:00 20.7 11 Este 18 Sudeste -- -- -- 65
2020-04-30 08:00:00 17.9 12 Sudeste 23 Sudeste -- -- -- 73
2020-04-30 07:00:00 17.6 12 Sudeste 19 Sudeste -- -- -- 72
2020-04-30 06:00:00 17.9 11 Sudeste 23 Este -- -- -- 72
2020-04-30 05:00:00 17.7 11 Sudeste 18 Sudeste -- -- -- 71
2020-04-30 04:00:00 17.9 13 Sudeste 22 Sudeste -- -- -- 71
2020-04-30 03:00:00 18.2 11 Sur 22 Sudeste -- -- -- 72
2020-04-30 02:00:00 19.1 15 Este 26 Este -- -- -- 73
2020-04-30 01:00:00 19.3 13 Este 25 Nordeste -- -- -- 73
2020-04-30 00:00:00 19.2 7 Sudeste 29 Nordeste -- -- -- 72
2020-04-29 23:00:00 19.6 18 Nordeste 26 Nordeste -- -- -- 74
2020-04-29 22:00:00 19.8 14 Nordeste 21 Este -- -- -- 73
2020-04-29 21:00:00 19.9 13 Nordeste 28 Nordeste -- -- -- 72
2020-04-29 20:00:00 20.2 22 Nordeste 32 Nordeste -- -- -- 70
2020-04-29 19:00:00 21.2 18 Nordeste 33 Nordeste -- -- -- 68
2020-04-29 18:00:00 21.2 19 Nordeste 29 Nordeste -- -- -- 67
2020-04-29 17:00:00 22.3 16 Nordeste 27 Nordeste -- -- -- 66
2020-04-29 16:00:00 23.2 14 Nordeste 25 Nordeste -- -- -- 63
2020-04-29 15:00:00 22.2 13 Nordeste 23 Este -- -- -- 66
2020-04-29 14:00:00 22.1 15 Nordeste 32 Nordeste -- -- -- 64
2020-04-29 13:00:00 21.8 21 Nordeste 34 Nordeste -- -- -- 68
2020-04-29 12:00:00 22 16 Nordeste 29 Nordeste -- -- -- 67
2020-04-29 11:00:00 21.9 14 Nordeste 23 Nordeste -- -- -- 66
2020-04-29 10:00:00 21.2 15 Este 23 Este -- -- -- 69
2020-04-29 09:00:00 21 12 Este 20 Sudeste -- -- -- 64
2020-04-29 08:00:00 17.7 13 Sudeste 19 Sudeste -- -- -- 71
2020-04-29 07:00:00 17.6 9 Sudeste 17 Sudeste -- -- -- 70
2020-04-29 06:00:00 18.4 11 Sudeste 19 Nordeste -- -- -- 74
2020-04-29 05:00:00 19.3 9 Este 22 Nordeste -- -- -- 74
2020-04-29 04:00:00 19.6 14 Nordeste 23 Nordeste -- -- -- 75
2020-04-29 03:00:00 19.9 13 Nordeste 24 Nordeste -- -- -- 76
2020-04-29 02:00:00 20 17 Nordeste 27 Nordeste -- -- -- 77
2020-04-29 01:00:00 20.1 16 Nordeste 29 Nordeste -- -- -- 77
2020-04-29 00:00:00 20.4 13 Nordeste 25 Nordeste -- -- -- 76
2020-04-28 23:00:00 20.2 12 Nordeste 20 Nordeste -- -- -- 74
2020-04-28 22:00:00 20.1 12 Nordeste 23 Nordeste -- -- -- 73
2020-04-28 21:00:00 20.1 10 Nordeste 24 Nordeste -- -- -- 71
2020-04-28 20:00:00 20.6 12 Nordeste 23 Nordeste -- -- -- 70
2020-04-28 19:00:00 20.9 11 Nordeste 19 Nordeste -- -- -- 69
2020-04-28 18:00:00 21.4 11 Nordeste 20 Nordeste -- -- -- 66
2020-04-28 17:00:00 21.7 14 Nordeste 19 Nordeste -- -- -- 64
2020-04-28 16:00:00 22 12 Nordeste 21 Nordeste -- -- -- 63
2020-04-28 15:00:00 22.1 13 Nordeste 22 Nordeste -- -- -- 66
2020-04-28 14:00:00 22.8 13 Nordeste 24 Nordeste -- -- -- 63
2020-04-28 13:00:00 21.7 10 Nordeste 22 Nordeste -- -- -- 67
2020-04-28 12:00:00 22.7 6 Nordeste 11 Nordeste -- -- -- 62
2020-04-28 11:00:00 22.5 7 Nordeste 11 Norte -- -- -- 63
2020-04-28 10:00:00 21.5 9 Norte 13 Norte -- -- -- 65
2020-04-28 09:00:00 19.2 3 Sudeste 8 Sudeste -- -- -- 72
2020-04-28 08:00:00 17.3 7 Sur 13 Sur -- -- -- 75
2020-04-28 07:00:00 17.1 9 Sur 12 Sur -- -- -- 77
2020-04-28 06:00:00 17 4 Sur 10 Sur -- -- -- 76
2020-04-28 05:00:00 17.8 8 Sur 12 Sur -- -- -- 79
2020-04-28 04:00:00 17.9 6 Sur 10 Sur -- -- -- 78
2020-04-28 03:00:00 18.1 4 Sur 12 Sur -- -- -- 78
2020-04-28 02:00:00 18 10 Sur 12 Sur -- -- -- 75
2020-04-28 01:00:00 18.5 10 Sur 14 Sur -- -- -- 76
2020-04-28 00:00:00 18.7 7 Sur 10 Sudeste -- -- -- 80
2020-04-27 23:00:00 19.8 9 Este 24 Nordeste -- -- -- 79
2020-04-27 22:00:00 20.4 7 Nordeste 11 Nordeste -- -- -- 69
2020-04-27 21:00:00 20.7 6 Norte 11 Nordeste -- -- -- 70
2020-04-27 20:00:00 21.2 6 Nordeste 10 Norte -- -- -- 69
2020-04-27 19:00:00 21.9 6 Nordeste 8 Norte -- -- -- 67
2020-04-27 18:00:00 23 5 Nordeste 10 Nordeste -- -- -- 66
2020-04-27 17:00:00 23.1 8 Nordeste 10 Nordeste -- -- -- 66
2020-04-27 16:00:00 23.4 6 Norte 14 Norte -- -- -- 65
2020-04-27 15:00:00 24.3 9 Norte 13 Norte -- -- -- 60
2020-04-27 14:00:00 24.1 6 Norte 10 Nordeste -- -- -- 57
2020-04-27 13:00:00 23.5 7 Norte 10 Norte -- -- -- 61
2020-04-27 12:00:00 24 7 Norte 12 Norte -- -- -- 60
2020-04-27 11:00:00 23 6 Norte 10 Norte -- -- -- 63
2020-04-27 10:00:00 22.1 4 Norte 8 Norte -- -- -- 67
2020-04-27 09:00:00 20.8 4 Nordeste 8 Nordeste -- -- -- 69
2020-04-27 08:00:00 17.9 4 Sudoeste 7 Sudoeste -- -- -- 76
2020-04-27 07:00:00 17.5 0 Calma 9 Sudoeste -- -- -- 75
2020-04-27 06:00:00 17.7 6 Sur 9 Sur -- -- -- 78
2020-04-27 05:00:00 18.5 2 Sudoeste 7 Sur -- -- -- 78
2020-04-27 04:00:00 18.8 2 Sur 10 Sudoeste -- -- -- 78
2020-04-27 03:00:00 18.8 4 Sur 19 Oeste -- -- -- 74
2020-04-27 02:00:00 18.9 0 Calma 12 Sur -- -- -- 66
2020-04-27 01:00:00 17.9 8 Sur 10 Sur -- -- -- 68
2020-04-27 00:00:00 18 7 Sur 11 Sur -- -- -- 65
2020-04-26 23:00:00 18.8 8 Sudeste 12 Sudeste -- -- -- 67
2020-04-26 22:00:00 19.1 8 Sudeste 10 Sudeste -- -- -- 64
2020-04-26 21:00:00 19.7 2 Sudeste 8 Norte -- -- -- 60
2020-04-26 20:00:00 20.4 4 Nordeste 8 Norte -- -- -- 55
2020-04-26 19:00:00 21.7 4 Norte 9 Norte -- -- -- 49
2020-04-26 18:00:00 22.5 6 Noroeste 10 Noroeste -- -- -- 55
2020-04-26 17:00:00 21.7 4 Norte 8 Norte -- -- -- 61
2020-04-26 16:00:00 21.8 4 Norte 9 Norte -- -- -- 60
2020-04-26 15:00:00 21.6 5 Nordeste 10 Norte -- -- -- 60
2020-04-26 14:00:00 21.5 6 Nordeste 9 Nordeste -- -- -- 60
2020-04-26 13:00:00 21.3 5 Nordeste 10 Nordeste -- -- -- 60
2020-04-26 12:00:00 21.9 5 Nordeste 9 Nordeste -- -- -- 59
2020-04-26 11:00:00 21.9 6 Nordeste 10 Nordeste -- -- -- 58
2020-04-26 10:00:00 21.5 6 Nordeste 10 Nordeste -- -- -- 59
2020-04-26 09:00:00 -- 0 Calma -- -- -- -- -- --
2020-04-26 08:00:00 16.6 9 Sur 12 Sur -- -- -- 71
2020-04-26 07:00:00 16.6 9 Sur 13 Sur -- -- -- 71
2020-04-26 06:00:00 16.6 7 Sudoeste 10 Sur -- -- -- 70
2020-04-26 05:00:00 16.5 6 Sur 12 Sur -- -- -- 68
2020-04-26 04:00:00 17 8 Sur 16 Sur -- -- -- 70
2020-04-26 03:00:00 17.2 8 Sur 13 Sudeste -- -- -- 69
2020-04-26 02:00:00 17.7 7 Sudeste 13 Sudeste -- -- -- 70
2020-04-26 01:00:00 18.3 8 Sudeste 15 Nordeste -- -- -- 68
2020-04-26 00:00:00 19.1 11 Este 18 Este -- -- -- 69